Time;durP1;ratioP1;P1;durP2;ratioP2;P2;SDS_P1;SDS_P2;PMS_P1;PMS_P2;Temp;Humidity;BMP_temperature;BMP_pressure;BME280_temperature;BME280_humidity;BME280_pressure;Samples;Min_cycle;Max_cycle;Signal;HPM_P1;HPM_P2
2023/01/05 00:00:47;;;;;;;;;;;;;;;9.89;95.71;101650.16;5023733;28;19920;-79
2023/01/05 00:03:12;;;;;;;;;;;;;;;9.88;96.18;101667.63;5022130;28;19925;-79
2023/01/05 00:05:37;;;;;;;;;;;;;;;9.85;95.22;101677.28;5026959;28;19935;-79
2023/01/05 00:08:03;;;;;;;;;;;;;;;9.86;95.51;101652.81;5022683;28;20005;-79
2023/01/05 00:24:09;;;;;;;;;;;;;;;9.79;96.10;101653.00;5035612;28;19991;-79
2023/01/05 00:26:34;;;;;;;;;;;;;;;9.77;95.88;101652.19;5029298;28;20136;-79
2023/01/05 00:29:00;;;;;;;;;;;;;;;9.77;95.58;101646.09;5028548;28;19971;-79
2023/01/05 00:31:25;;;;;;;;;;;;;;;9.74;95.19;101667.94;5035428;28;19913;-78
2023/01/05 00:33:50;;;;;;;;;;;;;;;9.74;96.04;101648.78;5029680;28;19959;-79
2023/01/05 00:36:15;;;;;;;;;;;;;;;9.74;96.95;101651.38;5029553;28;19929;-79
2023/01/05 00:38:40;;;;;;;;;;;;;;;9.74;97.34;101648.78;5026749;28;19955;-79
2023/01/05 00:41:06;;;;;;;;;;;;;;;9.71;96.62;101656.69;5029379;28;20243;-79
2023/01/05 00:43:31;;;;;;;;;;;;;;;9.70;96.55;101660.22;5022023;28;19987;-78
2023/01/05 00:45:56;;;;;;;;;;;;;;;9.69;97.05;101663.72;5018085;28;19948;-79
2023/01/05 00:48:22;;;;;;;;;;;;;;;9.68;97.36;101680.28;5025089;28;20127;-79
2023/01/05 00:50:48;;;;;;;;;;;;;;;9.66;97.15;101669.88;5020764;28;19926;-79
2023/01/05 00:53:13;;;;;;;;;;;;;;;9.64;96.93;101663.84;5029341;28;20130;-79
2023/01/05 00:55:39;;;;;;;;;;;;;;;9.63;97.27;101667.34;5035933;28;19921;-79
2023/01/05 00:58:04;;;;;;;;;;;;;;;9.61;97.38;101672.59;5042968;28;19921;-79
2023/01/05 01:00:29;;;;;;;;;;;;;;;9.60;97.74;101663.03;5035039;28;19997;-79
2023/01/05 01:02:54;;;;;;;;;;;;;;;9.59;98.09;101676.16;5027502;28;19925;-79
2023/01/05 01:05:20;;;;;;;;;;;;;;;9.58;98.61;101684.88;5028405;28;19925;-79
2023/01/05 01:07:47;;;;;;;;;;;;;;;9.57;98.74;101684.03;5031428;28;19929;-79
2023/01/05 01:10:12;;;;;;;;;;;;;;;9.57;98.82;101696.25;5024692;28;20251;-79
2023/01/05 01:12:38;;;;;;;;;;;;;;;9.56;99.08;101691.91;5038663;28;20032;-79
2023/01/05 01:15:03;;;;;;;;;;;;;;;9.56;99.42;101699.75;5034762;28;19929;-79
2023/01/05 01:17:30;;;;;;;;;;;;;;;9.55;99.29;101704.13;5018789;28;19927;-79
2023/01/05 01:19:55;;;;;;;;;;;;;;;9.54;99.43;101705.00;5018900;28;20136;-79
2023/01/05 01:22:20;;;;;;;;;;;;;;;9.55;99.88;101705.88;5028808;28;19936;-79
2023/01/05 01:24:45;;;;;;;;;;;;;;;9.55;100.00;101713.72;5022632;28;19996;-79
2023/01/05 01:27:11;;;;;;;;;;;;;;;9.55;99.86;101713.72;5038501;28;20175;-79
2023/01/05 01:29:36;;;;;;;;;;;;;;;9.53;99.52;101715.50;5033542;28;19925;-79
2023/01/05 01:32:01;;;;;;;;;;;;;;;9.52;99.56;101719.03;5026376;28;19918;-79
2023/01/05 01:34:27;;;;;;;;;;;;;;;9.53;99.61;101721.63;5035734;28;19908;-79
2023/01/05 01:36:53;;;;;;;;;;;;;;;9.53;100.00;101728.56;5029332;28;20124;-79
2023/01/05 01:39:19;;;;;;;;;;;;;;;9.52;99.84;101717.25;5025778;28;20102;-79
2023/01/05 01:41:44;;;;;;;;;;;;;;;9.52;99.53;101732.09;5018674;28;20122;-79
2023/01/05 01:44:28;;;;;;;;;;;;;;;9.51;99.40;101740.81;5022008;28;19997;-79
2023/01/05 01:46:53;;;;;;;;;;;;;;;9.51;99.42;101730.38;5022847;28;19940;-79
2023/01/05 01:49:18;;;;;;;;;;;;;;;9.50;99.57;101732.13;5028598;28;20237;-79
2023/01/05 01:51:46;;;;;;;;;;;;;;;9.49;99.37;101729.53;5024247;28;19913;-79
2023/01/05 01:54:13;;;;;;;;;;;;;;;9.50;99.90;101733.91;5028316;28;19921;-79
2023/01/05 01:56:41;;;;;;;;;;;;;;;9.47;99.61;101742.66;5028226;28;19972;-79
2023/01/05 01:59:07;;;;;;;;;;;;;;;9.47;99.37;101731.34;5023879;28;19921;-79
2023/01/05 02:04:36;;;;;;;;;;;;;;;9.45;99.12;101744.44;5026584;28;19920;-79
2023/01/05 02:07:02;;;;;;;;;;;;;;;9.45;99.05;101744.44;5037174;28;20197;-79
2023/01/05 02:09:27;;;;;;;;;;;;;;;9.44;98.13;101745.34;5023650;28;19990;-79
2023/01/05 02:12:08;;;;;;;;;;;;;;;9.44;98.52;101741.84;5027888;28;20121;-79
2023/01/05 02:14:43;;;;;;;;;;;;;;;9.43;98.38;101738.38;5031396;28;19921;-79
2023/01/05 02:17:32;;;;;;;;;;;;;;;9.44;98.22;101741.84;5018474;28;19929;-79
2023/01/05 02:20:15;;;;;;;;;;;;;;;9.44;98.40;101742.75;5020754;28;19997;-79
2023/01/05 02:22:59;;;;;;;;;;;;;;;9.44;97.99;101755.81;5032729;28;20132;-79
2023/01/05 02:25:42;;;;;;;;;;;;;;;9.44;98.14;101747.09;5027010;28;20208;-79
2023/01/05 02:28:16;;;;;;;;;;;;;;;9.44;98.53;101741.84;5017770;28;19940;-79
2023/01/05 02:31:00;;;;;;;;;;;;;;;9.43;98.26;101754.06;5017789;28;19944;-79
2023/01/05 02:33:36;;;;;;;;;;;;;;;9.43;98.64;101754.06;5017940;28;19920;-79
2023/01/05 02:36:07;;;;;;;;;;;;;;;9.43;98.72;101734.91;5025558;28;20156;-79
2023/01/05 02:38:37;;;;;;;;;;;;;;;9.43;99.31;101753.22;5035204;28;19921;-79
2023/01/05 02:41:09;;;;;;;;;;;;;;;9.43;98.93;101748.00;5023350;28;19981;-79
2023/01/05 02:43:35;;;;;;;;;;;;;;;9.41;99.42;101734.94;5017923;28;19921;-78
2023/01/05 02:46:00;;;;;;;;;;;;;;;9.40;98.99;101747.16;5028208;28;19926;-79
2023/01/05 02:48:26;;;;;;;;;;;;;;;9.41;98.68;101748.03;5026760;28;19975;-79
2023/01/05 02:50:56;;;;;;;;;;;;;;;9.41;98.74;101756.72;5028437;28;19917;-79
2023/01/05 02:53:25;;;;;;;;;;;;;;;9.43;98.74;101748.00;5024368;28;20216;-79
2023/01/05 02:55:55;;;;;;;;;;;;;;;9.43;98.61;101742.75;5020878;28;20075;-79
2023/01/05 02:58:32;;;;;;;;;;;;;;;9.45;98.93;101740.97;5026280;28;19929;-79
2023/01/05 03:00:59;;;;;;;;;;;;;;;9.45;99.03;101736.59;5030975;28;19956;-79
2023/01/05 03:03:30;;;;;;;;;;;;;;;9.47;98.57;101732.19;5035107;28;20157;-79
2023/01/05 03:06:01;;;;;;;;;;;;;;;9.47;98.45;101732.19;5029429;28;19928;-79
2023/01/05 03:08:28;;;;;;;;;;;;;;;9.48;98.63;101731.31;5025098;28;20193;-79
2023/01/05 03:13:45;;;;;;;;;;;;;;;9.53;98.87;101749.50;5016964;28;19971;-79
2023/01/05 03:16:14;;;;;;;;;;;;;;;9.54;98.67;101744.25;5016873;28;19918;-79
2023/01/05 03:21:24;;;;;;;;;;;;;;;9.56;98.26;101744.22;5017223;28;20156;-79
2023/01/05 03:38:15;;;;;;;;;;;;;;;9.60;98.43;101770.28;5016409;28;20546;-79
2023/01/05 03:40:42;;;;;;;;;;;;;;;9.61;99.10;101764.13;5013421;28;20198;-79
2023/01/05 03:43:07;;;;;;;;;;;;;;;9.61;99.22;101751.06;5032129;28;20227;-79
2023/01/05 03:45:35;;;;;;;;;;;;;;;9.61;99.09;101753.66;5018608;28;19917;-79
2023/01/05 03:48:01;;;;;;;;;;;;;;;9.61;99.32;101758.06;5020561;28;19975;-79
2023/01/05 03:50:27;;;;;;;;;;;;;;;9.61;99.38;101760.66;5033491;28;19925;-79
2023/01/05 03:52:52;;;;;;;;;;;;;;;9.61;99.23;101761.53;5019713;28;20014;-79
2023/01/05 03:55:18;;;;;;;;;;;;;;;9.61;99.27;101760.66;5031275;28;19988;-79
2023/01/05 03:57:43;;;;;;;;;;;;;;;9.61;99.17;101764.13;5019535;28;19913;-79
2023/01/05 04:00:08;;;;;;;;;;;;;;;9.62;99.02;101759.75;5027422;28;20255;-79
2023/01/05 04:02:34;;;;;;;;;;;;;;;9.62;99.39;101764.97;5017343;28;19932;-79
2023/01/05 04:04:59;;;;;;;;;;;;;;;9.64;99.90;101788.50;5016656;28;19933;-79
2023/01/05 04:07:24;;;;;;;;;;;;;;;9.62;99.85;101778.06;5024140;28;19984;-79
2023/01/05 04:09:50;;;;;;;;;;;;;;;9.63;99.66;101781.56;5025305;28;20162;-79
2023/01/05 04:12:15;;;;;;;;;;;;;;;9.63;99.90;101771.94;5022054;28;19933;-79
2023/01/05 04:14:40;;;;;;;;;;;;;;;9.62;99.95;101783.28;5024453;28;19917;-79
2023/01/05 04:17:05;;;;;;;;;;;;;;;9.62;99.72;101772.84;5039802;28;19913;-79
2023/01/05 04:19:31;;;;;;;;;;;;;;;9.63;99.78;101765.88;5025601;28;20094;-79
2023/01/05 04:21:56;;;;;;;;;;;;;;;9.61;99.77;101764.13;5039507;28;19984;-79
2023/01/05 04:24:21;;;;;;;;;;;;;;;9.63;99.31;101758.03;5039788;28;19916;-79
2023/01/05 04:26:46;;;;;;;;;;;;;;;9.61;98.96;101756.28;5021678;28;19956;-79
2023/01/05 04:29:12;;;;;;;;;;;;;;;9.61;98.90;101771.97;5020174;28;19921;-79
2023/01/05 04:31:37;;;;;;;;;;;;;;;9.62;99.58;101772.84;5033558;28;19955;-79
2023/01/05 04:34:02;;;;;;;;;;;;;;;9.62;99.55;101775.44;5022117;28;20140;-79
2023/01/05 04:36:28;;;;;;;;;;;;;;;9.63;99.54;101784.19;5030789;28;19991;-79
2023/01/05 04:38:53;;;;;;;;;;;;;;;9.63;99.55;101785.03;5023483;28;19932;-79
2023/01/05 04:41:18;;;;;;;;;;;;;;;9.63;99.70;101789.41;5025434;28;20201;-79
2023/01/05 04:43:43;;;;;;;;;;;;;;;9.63;99.16;101794.63;5019524;28;19921;-79
2023/01/05 04:46:09;;;;;;;;;;;;;;;9.63;99.16;101787.63;5025634;28;19965;-79
2023/01/05 04:48:34;;;;;;;;;;;;;;;9.63;99.13;101774.56;5021997;28;19930;-79
2023/01/05 04:50:59;;;;;;;;;;;;;;;9.64;99.83;101788.50;5024262;28;19956;-79
2023/01/05 04:53:25;;;;;;;;;;;;;;;9.63;99.86;101777.19;5038102;28;19917;-79
2023/01/05 04:55:50;;;;;;;;;;;;;;;9.62;99.36;101783.28;5032341;28;19925;-79
2023/01/05 04:58:16;;;;;;;;;;;;;;;9.62;99.90;101796.38;5019780;28;20137;-79
2023/01/05 05:00:41;;;;;;;;;;;;;;;9.62;99.79;101791.13;5020659;28;20208;-79
2023/01/05 05:03:06;;;;;;;;;;;;;;;9.61;100.00;101799.91;5024924;28;19944;-79
2023/01/05 05:05:32;;;;;;;;;;;;;;;9.61;100.00;101797.28;5030494;28;20231;-79
2023/01/05 05:07:57;;;;;;;;;;;;;;;9.61;100.00;101807.75;5034427;28;19936;-79
2023/01/05 05:10:22;;;;;;;;;;;;;;;9.59;100.00;101804.31;5038957;28;20094;-79
2023/01/05 05:12:47;;;;;;;;;;;;;;;9.59;100.00;101806.91;5039091;28;19952;-79
2023/01/05 05:15:13;;;;;;;;;;;;;;;9.59;99.92;101806.91;5037583;28;19917;-79
2023/01/05 05:17:38;;;;;;;;;;;;;;;9.58;99.98;101813.88;5018528;28;20209;-79
2023/01/05 05:20:04;;;;;;;;;;;;;;;9.57;99.47;101806.94;5018194;28;20031;-79
2023/01/05 05:22:29;;;;;;;;;;;;;;;9.58;99.81;101813.03;5032132;28;20259;-79
2023/01/05 05:24:55;;;;;;;;;;;;;;;9.58;100.00;101823.50;5038535;28;19940;-79
2023/01/05 05:27:20;;;;;;;;;;;;;;;9.59;100.00;101812.16;5026397;28;20221;-79
2023/01/05 05:29:45;;;;;;;;;;;;;;;9.58;100.00;101815.63;5018439;28;19921;-79
2023/01/05 05:32:10;;;;;;;;;;;;;;;9.59;100.00;101825.22;5018928;28;19922;-79
2023/01/05 05:34:36;;;;;;;;;;;;;;;9.57;100.00;101825.25;5018336;28;19953;-79
2023/01/05 05:37:01;;;;;;;;;;;;;;;9.58;100.00;101839.19;5017248;28;19921;-79
2023/01/05 05:39:26;;;;;;;;;;;;;;;9.59;100.00;101843.53;5029042;28;19988;-79
2023/01/05 05:41:51;;;;;;;;;;;;;;;9.59;100.00;101838.31;5030963;28;20128;-79
2023/01/05 05:44:17;;;;;;;;;;;;;;;9.58;100.00;101842.66;5032922;28;19940;-79
2023/01/05 05:46:42;;;;;;;;;;;;;;;9.58;99.83;101831.34;5029081;28;20140;-79
2023/01/05 05:49:07;;;;;;;;;;;;;;;9.57;99.94;101840.09;5022683;28;19925;-79
2023/01/05 05:51:33;;;;;;;;;;;;;;;9.59;99.14;101848.75;5022529;28;20220;-79
2023/01/05 05:53:58;;;;;;;;;;;;;;;9.58;98.90;101855.72;5030374;28;20223;-79
2023/01/05 05:56:23;;;;;;;;;;;;;;;9.60;99.96;101855.69;5024128;28;19929;-79
2023/01/05 05:58:49;;;;;;;;;;;;;;;9.60;100.00;101858.31;5028375;28;19994;-79
2023/01/05 06:01:14;;;;;;;;;;;;;;;9.58;99.66;101852.25;5019467;28;19992;-79
2023/01/05 06:03:39;;;;;;;;;;;;;;;9.58;100.00;101858.34;5037283;28;20209;-79
2023/01/05 06:06:04;;;;;;;;;;;;;;;9.59;99.95;101851.38;5032017;28;20197;-79
2023/01/05 06:08:30;;;;;;;;;;;;;;;9.58;99.37;101854.88;5017805;28;19918;-79
2023/01/05 06:10:55;;;;;;;;;;;;;;;9.58;99.87;101873.19;5024853;28;19932;-79
2023/01/05 06:13:21;;;;;;;;;;;;;;;9.58;100.00;101860.94;5017414;28;19917;-79
2023/01/05 06:15:47;;;;;;;;;;;;;;;9.58;99.90;101878.41;5022813;28;19925;-79
2023/01/05 06:18:12;;;;;;;;;;;;;;;9.57;99.90;101874.09;5017818;28;19921;-79
2023/01/05 06:20:37;;;;;;;;;;;;;;;9.56;99.08;101874.97;5025450;28;19925;-79
2023/01/05 06:23:02;;;;;;;;;;;;;;;9.56;99.22;101875.81;5018204;28;19933;-80
2023/01/05 06:25:28;;;;;;;;;;;;;;;9.55;98.69;101876.72;5022511;28;19925;-79
2023/01/05 06:27:53;;;;;;;;;;;;;;;9.56;99.08;101885.44;5035829;28;19929;-79
2023/01/05 06:30:18;;;;;;;;;;;;;;;9.56;99.61;101893.28;5017208;28;20695;-79
2023/01/05 06:32:43;;;;;;;;;;;;;;;9.55;99.35;101891.53;5017293;28;19979;-79
2023/01/05 06:35:09;;;;;;;;;;;;;;;9.56;99.91;101899.34;5028219;28;19988;-79
2023/01/05 06:37:34;;;;;;;;;;;;;;;9.55;99.84;101902.88;5036323;28;19917;-79
2023/01/05 06:40:00;;;;;;;;;;;;;;;9.55;98.87;101896.75;5037168;28;19922;-79
2023/01/05 06:42:25;;;;;;;;;;;;;;;9.54;98.91;101906.38;5024503;28;19921;-79
2023/01/05 06:44:50;;;;;;;;;;;;;;;9.54;98.99;101903.75;5027789;28;19913;-79
2023/01/05 06:47:16;;;;;;;;;;;;;;;9.55;98.88;101909.84;5031950;28;19921;-79
2023/01/05 06:49:41;;;;;;;;;;;;;;;9.54;98.42;101908.13;5024672;28;19932;-79
2023/01/05 06:52:06;;;;;;;;;;;;;;;9.54;99.06;101909.00;5026102;28;19975;-79
2023/01/05 06:54:31;;;;;;;;;;;;;;;9.55;99.41;101917.69;5024617;28;19972;-79
2023/01/05 06:56:57;;;;;;;;;;;;;;;9.54;99.26;101918.59;5022484;28;19925;-79
2023/01/05 06:59:22;;;;;;;;;;;;;;;9.53;99.09;101916.84;5024235;28;19925;-79
2023/01/05 07:01:47;;;;;;;;;;;;;;;9.52;98.61;101917.75;5024214;28;20212;-79
2023/01/05 07:04:13;;;;;;;;;;;;;;;9.52;98.83;101920.38;5023740;28;20254;-79
2023/01/05 07:06:38;;;;;;;;;;;;;;;9.52;99.25;101925.63;5027249;28;19953;-79
2023/01/05 07:09:03;;;;;;;;;;;;;;;9.52;99.45;101925.63;5017800;28;19925;-79
2023/01/05 07:11:29;;;;;;;;;;;;;;;9.51;98.76;101929.09;5015776;28;19953;-80
2023/01/05 07:13:54;;;;;;;;;;;;;;;9.51;98.78;101936.94;5017112;28;19921;-79
2023/01/05 07:16:19;;;;;;;;;;;;;;;9.50;99.26;101930.00;5017501;28;20233;-79
2023/01/05 07:18:44;;;;;;;;;;;;;;;9.50;99.59;101943.94;5016526;28;19952;-79
2023/01/05 07:21:10;;;;;;;;;;;;;;;9.48;98.98;101932.66;5017570;28;19976;-79
2023/01/05 07:23:38;;;;;;;;;;;;;;;9.48;99.63;101926.53;5028572;28;20370;-79
2023/01/05 07:26:03;;;;;;;;;;;;;;;9.47;99.93;101930.06;5035366;28;19921;-79
2023/01/05 07:28:29;;;;;;;;;;;;;;;9.47;99.74;101944.00;5036403;28;20341;-79
2023/01/05 07:30:54;;;;;;;;;;;;;;;9.46;99.27;101937.06;5036596;28;20182;-79
2023/01/05 07:33:19;;;;;;;;;;;;;;;9.45;99.67;101937.94;5026992;28;19921;-79
2023/01/05 07:35:45;;;;;;;;;;;;;;;9.45;99.95;101937.94;5021347;28;19958;-79
2023/01/05 07:38:10;;;;;;;;;;;;;;;9.45;99.58;101934.47;5024406;28;19936;-79
2023/01/05 07:40:35;;;;;;;;;;;;;;;9.44;100.00;101941.44;5025794;28;19925;-79
2023/01/05 07:43:00;;;;;;;;;;;;;;;9.43;99.35;101936.25;5029900;28;19925;-79
2023/01/05 07:45:26;;;;;;;;;;;;;;;9.42;99.74;101943.22;5017347;28;19929;-79
2023/01/05 07:47:51;;;;;;;;;;;;;;;9.40;99.30;101940.66;5033995;28;19935;-79
2023/01/05 07:50:16;;;;;;;;;;;;;;;9.41;99.51;101946.72;5021223;28;20000;-79
2023/01/05 07:52:42;;;;;;;;;;;;;;;9.39;100.00;101951.97;5018666;28;19925;-79
2023/01/05 07:55:07;;;;;;;;;;;;;;;9.39;99.50;101956.34;5024432;28;19917;-79
2023/01/05 07:57:32;;;;;;;;;;;;;;;9.39;99.52;101970.28;5033303;28;19932;-79
2023/01/05 07:59:58;;;;;;;;;;;;;;;9.37;100.00;101952.91;5032259;28;20057;-79
2023/01/05 08:02:23;;;;;;;;;;;;;;;9.37;99.87;101958.13;5018655;28;19928;-79
2023/01/05 08:04:48;;;;;;;;;;;;;;;9.35;100.00;101970.34;5028885;28;19918;-79
2023/01/05 08:07:14;;;;;;;;;;;;;;;9.37;100.00;101968.59;5035009;28;20022;-79
2023/01/05 08:12:23;;;;;;;;;;;;;;;9.34;100.00;101966.88;5035113;28;20120;-79
2023/01/05 08:14:49;;;;;;;;;;;;;;;9.32;99.95;101966.03;5025694;28;20024;-79
2023/01/05 08:17:14;;;;;;;;;;;;;;;9.33;100.00;101974.75;5030396;28;19932;-79
2023/01/05 08:19:39;;;;;;;;;;;;;;;9.32;99.85;101981.72;5021825;28;19913;-79
2023/01/05 08:22:04;;;;;;;;;;;;;;;9.31;99.54;101982.59;5033946;28;19963;-79
2023/01/05 08:24:29;;;;;;;;;;;;;;;9.32;99.91;101981.72;5035669;28;19933;-79
2023/01/05 08:26:55;;;;;;;;;;;;;;;9.31;99.86;101987.84;5022514;28;19925;-79
2023/01/05 08:29:20;;;;;;;;;;;;;;;9.32;99.99;101988.72;5023851;28;20103;-79
2023/01/05 08:31:45;;;;;;;;;;;;;;;9.32;100.00;101996.56;5017406;28;19925;-79
2023/01/05 08:34:11;;;;;;;;;;;;;;;9.31;99.96;102000.06;5015013;28;19964;-79
2023/01/05 08:36:36;;;;;;;;;;;;;;;9.32;99.58;102001.78;5025045;28;19925;-79
2023/01/05 08:39:02;;;;;;;;;;;;;;;9.33;99.62;102008.72;5023122;28;19995;-79
2023/01/05 08:41:29;;;;;;;;;;;;;;;9.33;99.37;102006.13;5025554;28;20137;-79
2023/01/05 08:43:56;;;;;;;;;;;;;;;9.34;99.70;102013.09;5015975;28;20200;-79
2023/01/05 08:46:22;;;;;;;;;;;;;;;9.34;99.74;102019.16;5022590;28;19983;-79
2023/01/05 08:48:51;;;;;;;;;;;;;;;9.34;99.94;102027.00;5026006;28;20016;-79
2023/01/05 08:51:17;;;;;;;;;;;;;;;9.35;100.00;102022.63;5020738;28;20189;-79
2023/01/05 08:53:43;;;;;;;;;;;;;;;9.35;99.76;102028.75;5015879;28;19929;-79
2023/01/05 08:56:09;;;;;;;;;;;;;;;9.35;99.24;102030.47;5023488;28;19918;-79
2023/01/05 08:58:35;;;;;;;;;;;;;;;9.35;99.41;102033.09;5021579;28;19921;-79
2023/01/05 09:01:04;;;;;;;;;;;;;;;9.35;99.66;102028.75;5028010;28;20215;-79
2023/01/05 09:03:29;;;;;;;;;;;;;;;9.36;100.00;102040.06;5015088;28;19927;-79
2023/01/05 09:05:58;;;;;;;;;;;;;;;9.37;100.00;102028.72;5023748;28;19924;-79
2023/01/05 09:08:23;;;;;;;;;;;;;;;9.37;99.80;102031.34;5029898;28;20177;-79
2023/01/05 09:10:48;;;;;;;;;;;;;;;9.37;100.00;102040.03;5028651;28;20171;-79
2023/01/05 09:13:14;;;;;;;;;;;;;;;9.37;100.00;102032.19;5036372;28;20345;-79
2023/01/05 09:15:39;;;;;;;;;;;;;;;9.38;100.00;102036.53;5034468;28;19921;-79
2023/01/05 09:18:04;;;;;;;;;;;;;;;9.39;99.91;102048.72;5031112;28;20047;-79
2023/01/05 09:20:30;;;;;;;;;;;;;;;9.39;100.00;102046.09;5027107;28;19964;-79
2023/01/05 09:22:55;;;;;;;;;;;;;;;9.39;99.75;102042.63;5017759;28;19977;-79
2023/01/05 09:25:20;;;;;;;;;;;;;;;9.39;99.94;102046.09;5017471;28;19925;-79
2023/01/05 09:27:45;;;;;;;;;;;;;;;9.41;100.00;102049.56;5017597;28;20217;-79
2023/01/05 09:30:11;;;;;;;;;;;;;;;9.41;100.00;102056.53;5019200;28;19956;-79
2023/01/05 09:32:36;;;;;;;;;;;;;;;9.40;100.00;102050.47;5014553;28;19913;-79
2023/01/05 09:35:02;;;;;;;;;;;;;;;9.41;100.00;102051.31;5020197;28;19929;-79
2023/01/05 09:37:27;;;;;;;;;;;;;;;9.41;100.00;102057.41;5023019;28;19925;-79
2023/01/05 09:39:52;;;;;;;;;;;;;;;9.43;100.00;102065.22;5022748;28;19925;-79
2023/01/05 09:42:19;;;;;;;;;;;;;;;9.43;100.00;102066.97;5022977;28;20176;-79
2023/01/05 09:44:47;;;;;;;;;;;;;;;9.43;100.00;102069.59;5026045;28;20259;-79
2023/01/05 09:47:12;;;;;;;;;;;;;;;9.44;100.00;102073.91;5027315;28;19927;-79
2023/01/05 09:49:38;;;;;;;;;;;;;;;9.43;100.00;102067.84;5026659;28;19909;-79
2023/01/05 09:52:09;;;;;;;;;;;;;;;9.45;100.00;102070.44;5027938;28;19917;-79
2023/01/05 09:54:35;;;;;;;;;;;;;;;9.45;100.00;102079.13;5023697;28;19953;-79
2023/01/05 09:57:01;;;;;;;;;;;;;;;9.46;100.00;102075.63;5025235;28;20179;-79
2023/01/05 09:59:29;;;;;;;;;;;;;;;9.48;100.00;102086.94;5028863;28;19976;-79
2023/01/05 10:01:57;;;;;;;;;;;;;;;9.48;100.00;102092.16;5017127;28;19924;-79
2023/01/05 10:04:23;;;;;;;;;;;;;;;9.51;100.00;102099.09;5022058;28;19985;-79
2023/01/05 10:06:50;;;;;;;;;;;;;;;9.51;100.00;102080.78;5023838;28;19923;-79
2023/01/05 10:09:20;;;;;;;;;;;;;;;9.53;100.00;102099.91;5016952;28;20008;-79
2023/01/05 10:14:40;;;;;;;;;;;;;;;9.55;100.00;102092.91;5028869;28;19927;-79
2023/01/05 10:17:16;;;;;;;;;;;;;;;9.55;100.00;102093.78;5021351;28;20125;-79
2023/01/05 10:19:42;;;;;;;;;;;;;;;9.56;100.00;102098.13;5024332;28;20205;-79
2023/01/05 10:22:25;;;;;;;;;;;;;;;9.57;100.00;102097.25;5022367;28;19921;-79
2023/01/05 10:24:59;;;;;;;;;;;;;;;9.59;100.00;102094.59;5018093;28;20265;-79
2023/01/05 10:27:32;;;;;;;;;;;;;;;9.59;100.00;102097.22;5020443;28;19932;-79
2023/01/05 10:30:20;;;;;;;;;;;;;;;9.60;100.00;102094.59;5027623;28;19971;-79
2023/01/05 10:32:56;;;;;;;;;;;;;;;9.62;100.00;102102.38;5012471;28;19918;-79
2023/01/05 10:35:28;;;;;;;;;;;;;;;9.63;100.00;102096.28;5022629;28;19920;-79
2023/01/05 10:38:13;;;;;;;;;;;;;;;9.66;100.00;102097.97;5025347;28;19917;-79
2023/01/05 10:41:00;;;;;;;;;;;;;;;9.68;100.00;102096.19;5020765;28;19949;-79
2023/01/05 10:43:40;;;;;;;;;;;;;;;9.69;100.00;102100.53;5027118;28;19950;-79
2023/01/05 10:46:08;;;;;;;;;;;;;;;9.71;100.00;102097.00;5021991;28;19944;-79
2023/01/05 10:48:34;;;;;;;;;;;;;;;9.74;100.00;102096.94;5021532;28;20009;-79
2023/01/05 10:51:00;;;;;;;;;;;;;;;9.75;100.00;102098.69;5024033;28;20209;-79
2023/01/05 10:53:26;;;;;;;;;;;;;;;9.76;100.00;102107.41;5020095;28;20112;-79
2023/01/05 10:56:04;;;;;;;;;;;;;;;9.77;100.00;102104.75;5025754;28;20011;-79
2023/01/05 10:58:31;;;;;;;;;;;;;;;9.78;100.00;102109.09;5017984;28;20081;-79
2023/01/05 11:00:59;;;;;;;;;;;;;;;9.80;100.00;102103.81;5022453;28;19929;-80
2023/01/05 11:03:31;;;;;;;;;;;;;;;9.82;100.00;102109.03;5020561;28;19924;-79
2023/01/05 11:05:57;;;;;;;;;;;;;;;9.82;100.00;102109.88;5021231;28;19921;-79
2023/01/05 11:08:27;;;;;;;;;;;;;;;9.81;100.00;102102.94;5018375;28;19925;-79
2023/01/05 11:10:52;;;;;;;;;;;;;;;9.81;100.00;102100.34;5018905;28;19929;-79
2023/01/05 11:13:25;;;;;;;;;;;;;;;9.81;100.00;102100.34;5021303;28;19917;-79
2023/01/05 11:15:55;;;;;;;;;;;;;;;9.81;100.00;102100.34;5026821;28;19925;-79
2023/01/05 11:18:21;;;;;;;;;;;;;;;9.82;100.00;102099.44;5020551;28;20447;-79
2023/01/05 11:21:25;;;;;;;;;;;;;;;9.83;100.00;102084.63;5020778;28;19913;-79
2023/01/05 11:23:51;;;;;;;;;;;;;;;9.83;100.00;102080.22;4982208;28;20278;-79
2023/01/05 11:26:16;;;;;;;;;;;;;;;9.85;100.00;102074.97;4991174;28;19922;-79
2023/01/05 11:28:54;;;;;;;;;;;;;;;9.84;100.00;102071.50;5001747;28;19924;-79
2023/01/05 11:31:19;;;;;;;;;;;;;;;9.85;100.00;102077.59;5018432;28;19917;-79
2023/01/05 11:33:44;;;;;;;;;;;;;;;9.87;100.00;102071.44;5021574;28;20002;-79
2023/01/05 11:36:13;;;;;;;;;;;;;;;9.87;100.00;102068.81;5019003;28;20260;-79
2023/01/05 11:38:38;;;;;;;;;;;;;;;9.88;100.00;102082.78;5025110;28;19925;-79
2023/01/05 11:41:08;;;;;;;;;;;;;;;9.88;100.00;102072.31;5016985;28;20051;-79
2023/01/05 11:43:34;;;;;;;;;;;;;;;9.88;100.00;102078.41;5023376;28;20129;-79
2023/01/05 11:46:02;;;;;;;;;;;;;;;9.89;100.00;102079.25;5026272;28;19917;-79
2023/01/05 11:48:30;;;;;;;;;;;;;;;9.89;100.00;102080.13;5019290;28;20228;-79
2023/01/05 11:50:57;;;;;;;;;;;;;;;9.90;100.00;102078.38;5023478;28;19921;-79
2023/01/05 11:53:22;;;;;;;;;;;;;;;9.89;100.00;102077.50;5022282;28;19921;-79
2023/01/05 11:55:57;;;;;;;;;;;;;;;9.91;100.00;102085.31;5024272;28;19921;-79
2023/01/05 11:58:24;;;;;;;;;;;;;;;9.91;100.00;102080.09;5024727;28;19972;-79
2023/01/05 12:01:16;;;;;;;;;;;;;;;9.90;100.00;102076.63;5023105;28;19967;-79
2023/01/05 12:03:50;;;;;;;;;;;;;;;9.91;100.00;102072.25;5018645;28;19921;-79
2023/01/05 12:06:37;;;;;;;;;;;;;;;9.91;100.00;102074.84;5024647;28;19945;-81
2023/01/05 12:09:15;;;;;;;;;;;;;;;9.91;100.00;102067.88;5023486;28;20213;-81
2023/01/05 12:11:49;;;;;;;;;;;;;;;9.90;100.00;102062.69;5022761;28;19917;-81
2023/01/05 12:14:26;;;;;;;;;;;;;;;9.91;100.00;102067.00;5025486;28;19921;-81
2023/01/05 12:16:55;;;;;;;;;;;;;;;9.90;100.00;102058.31;5025836;28;20586;-80
2023/01/05 12:19:44;;;;;;;;;;;;;;;9.91;100.00;102059.16;5020261;28;20140;-81
2023/01/05 12:22:12;;;;;;;;;;;;;;;9.92;100.00;102056.53;5010093;28;19992;-81
2023/01/05 12:24:42;;;;;;;;;;;;;;;9.92;100.00;102059.13;5017194;28;20204;-81
2023/01/05 12:27:08;;;;;;;;;;;;;;;9.93;100.00;102058.25;5023351;28;19936;-81
2023/01/05 12:29:33;;;;;;;;;;;;;;;9.94;100.00;102057.34;5024571;28;20128;-81
2023/01/05 12:31:58;;;;;;;;;;;;;;;9.94;100.00;102059.09;5022765;28;19944;-81
2023/01/05 12:34:43;;;;;;;;;;;;;;;9.95;99.65;102055.59;5024154;28;20012;-81
2023/01/05 12:37:18;;;;;;;;;;;;;;;9.96;99.70;102055.56;5025221;28;20160;-81
2023/01/05 12:40:02;;;;;;;;;;;;;;;9.99;99.49;102052.03;5021291;28;19921;-81
2023/01/05 12:42:27;;;;;;;;;;;;;;;10.00;100.00;102058.97;5023690;28;19928;-81
2023/01/05 12:45:02;;;;;;;;;;;;;;;9.99;99.77;102049.44;5028749;28;19921;-81
2023/01/05 12:47:45;;;;;;;;;;;;;;;10.01;99.05;102052.88;5025393;28;19928;-81
2023/01/05 12:50:29;;;;;;;;;;;;;;;10.03;99.01;102045.84;5025918;28;19988;-81
2023/01/05 12:53:14;;;;;;;;;;;;;;;10.03;99.01;102042.38;5026929;28;20094;-81
2023/01/05 12:55:46;;;;;;;;;;;;;;;10.04;99.06;102041.47;5016574;28;20205;-81
2023/01/05 12:58:21;;;;;;;;;;;;;;;10.05;98.87;102049.28;5023974;28;19921;-81
2023/01/05 13:00:47;;;;;;;;;;;;;;;10.05;98.65;102044.06;5027800;28;19917;-81
2023/01/05 13:03:18;;;;;;;;;;;;;;;10.05;98.65;102038.81;5017779;28;20209;-79
2023/01/05 13:06:01;;;;;;;;;;;;;;;10.06;98.39;102042.28;5022472;28;20136;-79
2023/01/05 13:08:36;;;;;;;;;;;;;;;10.08;98.33;102049.25;5023125;28;20367;-81
2023/01/05 13:11:16;;;;;;;;;;;;;;;10.09;98.47;102044.88;5017982;28;19918;-81
2023/01/05 13:13:45;;;;;;;;;;;;;;;10.10;98.50;102041.38;5017491;28;19956;-81
2023/01/05 13:16:17;;;;;;;;;;;;;;;10.09;98.67;102043.09;5016909;28;19918;-81
2023/01/05 13:18:49;;;;;;;;;;;;;;;10.10;98.65;102039.59;5016715;28;20668;-81
2023/01/05 13:21:15;;;;;;;;;;;;;;;10.11;98.62;102045.69;5033247;28;19940;-81
2023/01/05 13:23:43;;;;;;;;;;;;;;;10.11;98.45;102046.53;5022700;28;19917;-81
2023/01/05 13:26:18;;;;;;;;;;;;;;;10.11;98.53;102043.94;5023969;28;20004;-81
2023/01/05 13:28:47;;;;;;;;;;;;;;;10.12;98.62;102045.66;5024890;28;19928;-81